Terminal Aerodrome Forecast
Issued by NWS

Home | Current Version | Previous Version | Text Only | Print | Product List | Glossary On
Versions: 1 2 3 4 5 6 7 8 9 10 11 12
000
FTUS45 KABQ 251125
TAFROW
TAF
KROW 251125Z 2512/2612 01013KT P6SM SCT080
     FM251500 01015G25KT P6SM SCT035 BKN050
     FM252100 01012G20KT P6SM VCSH SCT025 BKN040
     FM260200 02008KT P6SM VCSH OVC035=

USA.gov is the U.S. government's official web portal to all federal, state and local government web resources and services.